sensor_id;sensor_type;location;lat;lon;timestamp;P1;durP1;ratioP1;P2;durP2;ratioP2
50906;SDS011;36882;27.680;85.304;2023-11-19T00:01:21;26.02;;;14.93;;
50906;SDS011;36882;27.680;85.304;2023-11-19T00:03:52;26.13;;;14.80;;
50906;SDS011;36882;27.680;85.304;2023-11-19T00:06:22;22.67;;;14.35;;
50906;SDS011;36882;27.680;85.304;2023-11-19T00:08:54;26.40;;;16.60;;
50906;SDS011;36882;27.680;85.304;2023-11-19T00:11:24;23.85;;;15.20;;
50906;SDS011;36882;27.680;85.304;2023-11-19T00:13:55;25.20;;;16.05;;
50906;SDS011;36882;27.680;85.304;2023-11-19T00:16:25;26.67;;;15.85;;
50906;SDS011;36882;27.680;85.304;2023-11-19T00:18:56;22.10;;;14.70;;
50906;SDS011;36882;27.680;85.304;2023-11-19T00:21:28;21.63;;;15.90;;
50906;SDS011;36882;27.680;85.304;2023-11-19T00:26:28;24.35;;;17.10;;
50906;SDS011;36882;27.680;85.304;2023-11-19T00:28:59;30.63;;;16.60;;
50906;SDS011;36882;27.680;85.304;2023-11-19T00:31:32;29.85;;;15.38;;
50906;SDS011;36882;27.680;85.304;2023-11-19T00:34:04;33.70;;;14.98;;
50906;SDS011;36882;27.680;85.304;2023-11-19T00:36:35;23.45;;;15.05;;
50906;SDS011;36882;27.680;85.304;2023-11-19T00:39:05;23.20;;;14.63;;
50906;SDS011;36882;27.680;85.304;2023-11-19T00:41:35;25.33;;;15.50;;
50906;SDS011;36882;27.680;85.304;2023-11-19T00:44:06;30.80;;;17.15;;
50906;SDS011;36882;27.680;85.304;2023-11-19T00:46:36;26.42;;;15.80;;
50906;SDS011;36882;27.680;85.304;2023-11-19T00:49:07;25.98;;;14.80;;
50906;SDS011;36882;27.680;85.304;2023-11-19T00:51:37;23.88;;;16.08;;
50906;SDS011;36882;27.680;85.304;2023-11-19T00:54:07;29.67;;;17.15;;
50906;SDS011;36882;27.680;85.304;2023-11-19T00:56:38;34.38;;;17.52;;
50906;SDS011;36882;27.680;85.304;2023-11-19T00:59:08;35.83;;;18.67;;
50906;SDS011;36882;27.680;85.304;2023-11-19T01:01:39;27.30;;;17.17;;
50906;SDS011;36882;27.680;85.304;2023-11-19T01:04:09;29.75;;;19.45;;
50906;SDS011;36882;27.680;85.304;2023-11-19T01:09:13;34.05;;;19.60;;
50906;SDS011;36882;27.680;85.304;2023-11-19T01:11:44;25.17;;;18.30;;
50906;SDS011;36882;27.680;85.304;2023-11-19T01:14:14;52.72;;;22.25;;
50906;SDS011;36882;27.680;85.304;2023-11-19T01:16:47;29.88;;;18.63;;
50906;SDS011;36882;27.680;85.304;2023-11-19T01:19:17;28.95;;;17.00;;
50906;SDS011;36882;27.680;85.304;2023-11-19T01:21:49;25.50;;;16.77;;
50906;SDS011;36882;27.680;85.304;2023-11-19T01:24:20;29.70;;;16.15;;
50906;SDS011;36882;27.680;85.304;2023-11-19T01:26:50;31.55;;;17.42;;
50906;SDS011;36882;27.680;85.304;2023-11-19T01:29:22;26.35;;;16.00;;
50906;SDS011;36882;27.680;85.304;2023-11-19T01:31:52;35.50;;;20.63;;
50906;SDS011;36882;27.680;85.304;2023-11-19T01:34:23;29.88;;;19.80;;
50906;SDS011;36882;27.680;85.304;2023-11-19T01:36:53;26.90;;;17.52;;
50906;SDS011;36882;27.680;85.304;2023-11-19T01:39:23;38.38;;;19.73;;
50906;SDS011;36882;27.680;85.304;2023-11-19T01:41:54;34.13;;;19.30;;
50906;SDS011;36882;27.680;85.304;2023-11-19T01:44:24;38.30;;;22.00;;
50906;SDS011;36882;27.680;85.304;2023-11-19T01:46:55;35.33;;;22.27;;
50906;SDS011;36882;27.680;85.304;2023-11-19T01:49:25;36.15;;;23.02;;
50906;SDS011;36882;27.680;85.304;2023-11-19T01:56:56;33.28;;;24.65;;
50906;SDS011;36882;27.680;85.304;2023-11-19T01:59:27;39.28;;;26.63;;
50906;SDS011;36882;27.680;85.304;2023-11-19T02:01:57;46.15;;;29.55;;
50906;SDS011;36882;27.680;85.304;2023-11-19T02:04:28;42.88;;;29.75;;
50906;SDS011;36882;27.680;85.304;2023-11-19T02:06:59;45.28;;;31.33;;
50906;SDS011;36882;27.680;85.304;2023-11-19T02:11:59;41.67;;;25.47;;
50906;SDS011;36882;27.680;85.304;2023-11-19T02:14:29;47.83;;;26.77;;
50906;SDS011;36882;27.680;85.304;2023-11-19T02:17:00;42.63;;;27.02;;
50906;SDS011;36882;27.680;85.304;2023-11-19T02:22:00;43.67;;;27.70;;
50906;SDS011;36882;27.680;85.304;2023-11-19T02:27:05;43.60;;;27.15;;
50906;SDS011;36882;27.680;85.304;2023-11-19T02:29:42;42.13;;;27.73;;
50906;SDS011;36882;27.680;85.304;2023-11-19T02:32:12;47.20;;;26.42;;
50906;SDS011;36882;27.680;85.304;2023-11-19T02:34:45;44.08;;;25.98;;
50906;SDS011;36882;27.680;85.304;2023-11-19T02:37:15;41.25;;;27.05;;
50906;SDS011;36882;27.680;85.304;2023-11-19T02:39:48;40.90;;;28.02;;
50906;SDS011;36882;27.680;85.304;2023-11-19T02:42:19;47.88;;;30.17;;
50906;SDS011;36882;27.680;85.304;2023-11-19T02:44:49;46.67;;;29.40;;
50906;SDS011;36882;27.680;85.304;2023-11-19T02:47:19;45.42;;;25.35;;
50906;SDS011;36882;27.680;85.304;2023-11-19T02:49:52;38.63;;;25.45;;
50906;SDS011;36882;27.680;85.304;2023-11-19T02:52:23;41.55;;;23.70;;
50906;SDS011;36882;27.680;85.304;2023-11-19T02:54:53;53.92;;;29.77;;
50906;SDS011;36882;27.680;85.304;2023-11-19T02:57:24;42.40;;;28.20;;
50906;SDS011;36882;27.680;85.304;2023-11-19T02:59:54;48.88;;;32.63;;
50906;SDS011;36882;27.680;85.304;2023-11-19T03:02:25;51.55;;;29.83;;
50906;SDS011;36882;27.680;85.304;2023-11-19T03:05:02;60.35;;;29.98;;
50906;SDS011;36882;27.680;85.304;2023-11-19T03:07:36;47.47;;;31.88;;
50906;SDS011;36882;27.680;85.304;2023-11-19T03:10:06;44.72;;;32.30;;
50906;SDS011;36882;27.680;85.304;2023-11-19T03:12:38;49.00;;;32.17;;
50906;SDS011;36882;27.680;85.304;2023-11-19T03:15:09;45.03;;;31.33;;
50906;SDS011;36882;27.680;85.304;2023-11-19T03:17:41;48.25;;;28.95;;
50906;SDS011;36882;27.680;85.304;2023-11-19T03:20:12;49.22;;;30.13;;
50906;SDS011;36882;27.680;85.304;2023-11-19T03:22:45;47.13;;;28.08;;
50906;SDS011;36882;27.680;85.304;2023-11-19T03:25:15;44.45;;;29.83;;
50906;SDS011;36882;27.680;85.304;2023-11-19T03:27:46;50.92;;;28.73;;
50906;SDS011;36882;27.680;85.304;2023-11-19T03:32:47;46.22;;;33.20;;
50906;SDS011;36882;27.680;85.304;2023-11-19T03:35:17;44.28;;;30.58;;
50906;SDS011;36882;27.680;85.304;2023-11-19T03:40:17;47.75;;;27.13;;
50906;SDS011;36882;27.680;85.304;2023-11-19T03:42:48;40.08;;;27.50;;
50906;SDS011;36882;27.680;85.304;2023-11-19T03:47:48;40.95;;;27.35;;
50906;SDS011;36882;27.680;85.304;2023-11-19T03:50:19;38.00;;;26.02;;
50906;SDS011;36882;27.680;85.304;2023-11-19T03:55:19;43.20;;;26.13;;
50906;SDS011;36882;27.680;85.304;2023-11-19T04:00:19;40.35;;;22.30;;
50906;SDS011;36882;27.680;85.304;2023-11-19T04:02:50;41.55;;;25.65;;
50906;SDS011;36882;27.680;85.304;2023-11-19T04:07:50;41.42;;;26.10;;
50906;SDS011;36882;27.680;85.304;2023-11-19T04:12:51;40.63;;;24.55;;
50906;SDS011;36882;27.680;85.304;2023-11-19T04:15:21;40.47;;;25.20;;
50906;SDS011;36882;27.680;85.304;2023-11-19T04:17:52;40.45;;;28.27;;
50906;SDS011;36882;27.680;85.304;2023-11-19T04:20:23;37.92;;;28.38;;
50906;SDS011;36882;27.680;85.304;2023-11-19T04:22:54;37.35;;;26.30;;
50906;SDS011;36882;27.680;85.304;2023-11-19T04:25:24;50.78;;;29.02;;
50906;SDS011;36882;27.680;85.304;2023-11-19T04:27:55;48.30;;;31.25;;
50906;SDS011;36882;27.680;85.304;2023-11-19T04:30:25;49.30;;;31.65;;
50906;SDS011;36882;27.680;85.304;2023-11-19T04:35:25;42.55;;;28.98;;
50906;SDS011;36882;27.680;85.304;2023-11-19T04:37:56;41.47;;;29.08;;
50906;SDS011;36882;27.680;85.304;2023-11-19T04:42:56;43.45;;;30.60;;
50906;SDS011;36882;27.680;85.304;2023-11-19T04:47:56;52.35;;;32.90;;
50906;SDS011;36882;27.680;85.304;2023-11-19T04:52:56;44.65;;;27.75;;
50906;SDS011;36882;27.680;85.304;2023-11-19T04:55:27;44.22;;;29.92;;
50906;SDS011;36882;27.680;85.304;2023-11-19T04:57:57;49.80;;;32.60;;
50906;SDS011;36882;27.680;85.304;2023-11-19T05:00:27;49.10;;;31.20;;
50906;SDS011;36882;27.680;85.304;2023-11-19T05:02:58;47.55;;;29.13;;
50906;SDS011;36882;27.680;85.304;2023-11-19T05:05:29;50.47;;;32.67;;
50906;SDS011;36882;27.680;85.304;2023-11-19T05:07:59;43.35;;;26.30;;
50906;SDS011;36882;27.680;85.304;2023-11-19T05:10:30;42.15;;;26.92;;
50906;SDS011;36882;27.680;85.304;2023-11-19T05:13:00;43.28;;;26.77;;
50906;SDS011;36882;27.680;85.304;2023-11-19T05:15:31;40.90;;;25.30;;
50906;SDS011;36882;27.680;85.304;2023-11-19T05:18:02;51.00;;;27.02;;
50906;SDS011;36882;27.680;85.304;2023-11-19T05:20:33;43.30;;;27.25;;
50906;SDS011;36882;27.680;85.304;2023-11-19T05:23:04;39.00;;;24.48;;
50906;SDS011;36882;27.680;85.304;2023-11-19T05:25:47;44.88;;;27.27;;
50906;SDS011;36882;27.680;85.304;2023-11-19T05:28:17;30.17;;;17.95;;
50906;SDS011;36882;27.680;85.304;2023-11-19T05:30:48;23.20;;;16.55;;
50906;SDS011;36882;27.680;85.304;2023-11-19T05:33:19;29.40;;;18.05;;
50906;SDS011;36882;27.680;85.304;2023-11-19T05:35:49;28.67;;;16.52;;
50906;SDS011;36882;27.680;85.304;2023-11-19T05:38:20;18.00;;;11.35;;
50906;SDS011;36882;27.680;85.304;2023-11-19T05:43:20;16.42;;;10.80;;
50906;SDS011;36882;27.680;85.304;2023-11-19T05:45:50;17.17;;;11.18;;
50906;SDS011;36882;27.680;85.304;2023-11-19T05:48:21;17.50;;;10.27;;
50906;SDS011;36882;27.680;85.304;2023-11-19T05:50:52;14.82;;;10.27;;
50906;SDS011;36882;27.680;85.304;2023-11-19T05:53:27;27.02;;;17.42;;
50906;SDS011;36882;27.680;85.304;2023-11-19T05:55:58;25.23;;;14.52;;
50906;SDS011;36882;27.680;85.304;2023-11-19T05:58:32;27.77;;;16.33;;
50906;SDS011;36882;27.680;85.304;2023-11-19T06:01:03;23.15;;;18.08;;
50906;SDS011;36882;27.680;85.304;2023-11-19T06:03:36;23.55;;;17.90;;
50906;SDS011;36882;27.680;85.304;2023-11-19T06:06:07;30.27;;;18.25;;
50906;SDS011;36882;27.680;85.304;2023-11-19T06:08:38;34.55;;;21.17;;
50906;SDS011;36882;27.680;85.304;2023-11-19T06:11:09;27.77;;;18.50;;
50906;SDS011;36882;27.680;85.304;2023-11-19T06:13:47;36.05;;;20.45;;
50906;SDS011;36882;27.680;85.304;2023-11-19T06:16:19;28.55;;;18.08;;
50906;SDS011;36882;27.680;85.304;2023-11-19T06:18:49;26.85;;;17.95;;
50906;SDS011;36882;27.680;85.304;2023-11-19T06:21:20;33.67;;;18.83;;
50906;SDS011;36882;27.680;85.304;2023-11-19T06:23:50;29.65;;;18.92;;
50906;SDS011;36882;27.680;85.304;2023-11-19T06:26:22;34.95;;;18.42;;
50906;SDS011;36882;27.680;85.304;2023-11-19T06:28:53;35.85;;;19.70;;
50906;SDS011;36882;27.680;85.304;2023-11-19T06:31:25;31.85;;;19.75;;
50906;SDS011;36882;27.680;85.304;2023-11-19T06:33:55;31.30;;;18.40;;
50906;SDS011;36882;27.680;85.304;2023-11-19T06:36:26;26.77;;;17.13;;
50906;SDS011;36882;27.680;85.304;2023-11-19T06:38:56;36.38;;;18.42;;
50906;SDS011;36882;27.680;85.304;2023-11-19T06:41:27;33.85;;;18.60;;
50906;SDS011;36882;27.680;85.304;2023-11-19T06:44:00;40.50;;;21.48;;
50906;SDS011;36882;27.680;85.304;2023-11-19T06:46:31;31.05;;;19.45;;
50906;SDS011;36882;27.680;85.304;2023-11-19T06:49:01;28.58;;;17.17;;
50906;SDS011;36882;27.680;85.304;2023-11-19T06:51:31;25.65;;;16.73;;
50906;SDS011;36882;27.680;85.304;2023-11-19T06:54:02;30.27;;;17.60;;
50906;SDS011;36882;27.680;85.304;2023-11-19T06:56:33;30.70;;;19.27;;
50906;SDS011;36882;27.680;85.304;2023-11-19T06:59:03;29.83;;;16.95;;
50906;SDS011;36882;27.680;85.304;2023-11-19T07:01:36;28.80;;;17.33;;
50906;SDS011;36882;27.680;85.304;2023-11-19T07:04:07;31.90;;;19.38;;
50906;SDS011;36882;27.680;85.304;2023-11-19T07:06:38;27.67;;;17.60;;
50906;SDS011;36882;27.680;85.304;2023-11-19T07:09:11;31.75;;;19.70;;
50906;SDS011;36882;27.680;85.304;2023-11-19T07:11:42;27.83;;;17.63;;
50906;SDS011;36882;27.680;85.304;2023-11-19T07:14:14;30.63;;;20.25;;
50906;SDS011;36882;27.680;85.304;2023-11-19T07:16:44;30.73;;;18.75;;
50906;SDS011;36882;27.680;85.304;2023-11-19T07:19:15;30.52;;;19.30;;
50906;SDS011;36882;27.680;85.304;2023-11-19T07:21:45;29.15;;;18.77;;
50906;SDS011;36882;27.680;85.304;2023-11-19T07:24:16;37.22;;;17.95;;
50906;SDS011;36882;27.680;85.304;2023-11-19T07:26:46;30.10;;;20.20;;
50906;SDS011;36882;27.680;85.304;2023-11-19T07:29:17;28.60;;;17.60;;
50906;SDS011;36882;27.680;85.304;2023-11-19T07:31:50;32.70;;;18.85;;
50906;SDS011;36882;27.680;85.304;2023-11-19T07:34:20;28.35;;;17.77;;
50906;SDS011;36882;27.680;85.304;2023-11-19T07:36:51;31.20;;;18.65;;
50906;SDS011;36882;27.680;85.304;2023-11-19T07:39:22;26.27;;;17.65;;
50906;SDS011;36882;27.680;85.304;2023-11-19T07:41:52;29.35;;;16.67;;
50906;SDS011;36882;27.680;85.304;2023-11-19T07:44:22;27.20;;;18.02;;
50906;SDS011;36882;27.680;85.304;2023-11-19T07:46:53;26.98;;;15.93;;
50906;SDS011;36882;27.680;85.304;2023-11-19T07:49:23;29.38;;;17.23;;
50906;SDS011;36882;27.680;85.304;2023-11-19T07:51:54;25.70;;;16.25;;
50906;SDS011;36882;27.680;85.304;2023-11-19T07:54:24;22.42;;;15.57;;
50906;SDS011;36882;27.680;85.304;2023-11-19T07:56:55;28.30;;;16.00;;
50906;SDS011;36882;27.680;85.304;2023-11-19T07:59:25;25.60;;;16.25;;
50906;SDS011;36882;27.680;85.304;2023-11-19T08:01:56;21.95;;;16.17;;
50906;SDS011;36882;27.680;85.304;2023-11-19T08:04:26;24.05;;;17.98;;
50906;SDS011;36882;27.680;85.304;2023-11-19T08:06:57;22.75;;;14.40;;
50906;SDS011;36882;27.680;85.304;2023-11-19T08:09:27;29.00;;;15.85;;
50906;SDS011;36882;27.680;85.304;2023-11-19T08:11:58;25.63;;;14.70;;
50906;SDS011;36882;27.680;85.304;2023-11-19T08:14:28;24.20;;;15.50;;
50906;SDS011;36882;27.680;85.304;2023-11-19T08:16:59;29.00;;;15.02;;
50906;SDS011;36882;27.680;85.304;2023-11-19T08:19:29;23.60;;;13.65;;
50906;SDS011;36882;27.680;85.304;2023-11-19T08:22:00;21.80;;;15.95;;
50906;SDS011;36882;27.680;85.304;2023-11-19T08:24:33;20.55;;;14.55;;
50906;SDS011;36882;27.680;85.304;2023-11-19T08:27:03;20.50;;;13.75;;
50906;SDS011;36882;27.680;85.304;2023-11-19T08:29:34;21.77;;;14.57;;
50906;SDS011;36882;27.680;85.304;2023-11-19T08:32:04;21.52;;;13.32;;
50906;SDS011;36882;27.680;85.304;2023-11-19T08:34:35;20.90;;;15.23;;
50906;SDS011;36882;27.680;85.304;2023-11-19T08:37:06;19.95;;;13.85;;
50906;SDS011;36882;27.680;85.304;2023-11-19T08:39:36;19.80;;;13.23;;
50906;SDS011;36882;27.680;85.304;2023-11-19T08:42:10;24.48;;;13.55;;
50906;SDS011;36882;27.680;85.304;2023-11-19T08:44:40;21.20;;;11.60;;
50906;SDS011;36882;27.680;85.304;2023-11-19T08:47:12;21.67;;;13.65;;
50906;SDS011;36882;27.680;85.304;2023-11-19T08:49:44;21.65;;;14.65;;
50906;SDS011;36882;27.680;85.304;2023-11-19T08:52:30;25.63;;;13.48;;
50906;SDS011;36882;27.680;85.304;2023-11-19T08:55:01;25.30;;;12.48;;
50906;SDS011;36882;27.680;85.304;2023-11-19T08:57:34;28.23;;;13.27;;
50906;SDS011;36882;27.680;85.304;2023-11-19T09:00:04;27.92;;;13.18;;
50906;SDS011;36882;27.680;85.304;2023-11-19T09:02:36;19.60;;;12.23;;
50906;SDS011;36882;27.680;85.304;2023-11-19T09:05:07;22.05;;;11.07;;
50906;SDS011;36882;27.680;85.304;2023-11-19T09:07:38;21.70;;;12.90;;
50906;SDS011;36882;27.680;85.304;2023-11-19T09:10:08;22.70;;;11.63;;
50906;SDS011;36882;27.680;85.304;2023-11-19T09:12:40;19.88;;;11.30;;
50906;SDS011;36882;27.680;85.304;2023-11-19T09:15:10;19.90;;;11.40;;
50906;SDS011;36882;27.680;85.304;2023-11-19T09:17:42;21.15;;;10.80;;
50906;SDS011;36882;27.680;85.304;2023-11-19T09:20:12;24.08;;;12.73;;
50906;SDS011;36882;27.680;85.304;2023-11-19T09:22:44;28.92;;;12.05;;
50906;SDS011;36882;27.680;85.304;2023-11-19T09:25:14;24.70;;;11.75;;
50906;SDS011;36882;27.680;85.304;2023-11-19T09:27:46;20.60;;;11.38;;
50906;SDS011;36882;27.680;85.304;2023-11-19T09:30:16;19.60;;;11.85;;
50906;SDS011;36882;27.680;85.304;2023-11-19T09:32:46;23.00;;;12.50;;
50906;SDS011;36882;27.680;85.304;2023-11-19T09:35:17;22.25;;;12.13;;
50906;SDS011;36882;27.680;85.304;2023-11-19T09:37:47;20.48;;;12.32;;
50906;SDS011;36882;27.680;85.304;2023-11-19T09:40:18;24.48;;;12.80;;
50906;SDS011;36882;27.680;85.304;2023-11-19T09:42:49;18.38;;;11.35;;
50906;SDS011;36882;27.680;85.304;2023-11-19T09:45:20;19.73;;;11.60;;
50906;SDS011;36882;27.680;85.304;2023-11-19T09:47:51;22.20;;;11.02;;
50906;SDS011;36882;27.680;85.304;2023-11-19T09:50:26;22.63;;;11.43;;
50906;SDS011;36882;27.680;85.304;2023-11-19T09:53:00;17.67;;;11.70;;
50906;SDS011;36882;27.680;85.304;2023-11-19T09:55:31;23.00;;;11.30;;
50906;SDS011;36882;27.680;85.304;2023-11-19T09:58:02;29.13;;;11.60;;
50906;SDS011;36882;27.680;85.304;2023-11-19T10:00:32;24.70;;;11.93;;
50906;SDS011;36882;27.680;85.304;2023-11-19T10:03:04;20.02;;;11.30;;
50906;SDS011;36882;27.680;85.304;2023-11-19T10:05:41;23.40;;;11.70;;
50906;SDS011;36882;27.680;85.304;2023-11-19T10:08:11;24.55;;;11.55;;
50906;SDS011;36882;27.680;85.304;2023-11-19T10:10:42;20.48;;;10.52;;
50906;SDS011;36882;27.680;85.304;2023-11-19T10:13:13;22.85;;;9.80;;
50906;SDS011;36882;27.680;85.304;2023-11-19T10:15:43;19.45;;;11.80;;
50906;SDS011;36882;27.680;85.304;2023-11-19T10:18:15;21.05;;;10.43;;
50906;SDS011;36882;27.680;85.304;2023-11-19T10:20:45;26.55;;;11.98;;
50906;SDS011;36882;27.680;85.304;2023-11-19T10:23:15;22.58;;;11.57;;
50906;SDS011;36882;27.680;85.304;2023-11-19T10:25:46;24.40;;;12.43;;
50906;SDS011;36882;27.680;85.304;2023-11-19T10:28:16;19.08;;;12.65;;
50906;SDS011;36882;27.680;85.304;2023-11-19T10:30:47;37.75;;;12.43;;
50906;SDS011;36882;27.680;85.304;2023-11-19T10:33:18;25.77;;;11.98;;
50906;SDS011;36882;27.680;85.304;2023-11-19T10:35:53;20.40;;;11.43;;
50906;SDS011;36882;27.680;85.304;2023-11-19T10:38:29;26.95;;;11.90;;
50906;SDS011;36882;27.680;85.304;2023-11-19T10:40:59;33.63;;;11.48;;
50906;SDS011;36882;27.680;85.304;2023-11-19T10:43:29;28.58;;;10.82;;
50906;SDS011;36882;27.680;85.304;2023-11-19T10:46:10;20.67;;;11.95;;
50906;SDS011;36882;27.680;85.304;2023-11-19T10:48:41;28.73;;;11.57;;
50906;SDS011;36882;27.680;85.304;2023-11-19T10:51:11;26.25;;;11.10;;
50906;SDS011;36882;27.680;85.304;2023-11-19T10:53:50;23.25;;;12.13;;
50906;SDS011;36882;27.680;85.304;2023-11-19T10:56:24;32.22;;;13.32;;
50906;SDS011;36882;27.680;85.304;2023-11-19T10:58:57;23.92;;;13.63;;
50906;SDS011;36882;27.680;85.304;2023-11-19T11:01:39;30.00;;;13.88;;
50906;SDS011;36882;27.680;85.304;2023-11-19T11:04:19;30.30;;;12.88;;
50906;SDS011;36882;27.680;85.304;2023-11-19T11:06:56;24.63;;;12.77;;
50906;SDS011;36882;27.680;85.304;2023-11-19T11:09:30;26.25;;;13.75;;
50906;SDS011;36882;27.680;85.304;2023-11-19T11:12:02;29.33;;;13.55;;
50906;SDS011;36882;27.680;85.304;2023-11-19T11:14:37;27.98;;;14.20;;
50906;SDS011;36882;27.680;85.304;2023-11-19T11:17:09;22.92;;;12.75;;
50906;SDS011;36882;27.680;85.304;2023-11-19T11:19:41;30.45;;;14.30;;
50906;SDS011;36882;27.680;85.304;2023-11-19T11:22:12;34.83;;;12.60;;
50906;SDS011;36882;27.680;85.304;2023-11-19T11:25:11;33.78;;;14.65;;
50906;SDS011;36882;27.680;85.304;2023-11-19T11:27:57;26.15;;;14.75;;
50906;SDS011;36882;27.680;85.304;2023-11-19T11:30:46;26.13;;;13.70;;
50906;SDS011;36882;27.680;85.304;2023-11-19T11:38:47;28.08;;;15.98;;
50906;SDS011;36882;27.680;85.304;2023-11-19T11:41:19;32.20;;;17.50;;
50906;SDS011;36882;27.680;85.304;2023-11-19T11:43:56;35.63;;;15.93;;
50906;SDS011;36882;27.680;85.304;2023-11-19T11:49:06;41.58;;;20.30;;
50906;SDS011;36882;27.680;85.304;2023-11-19T11:57:03;40.92;;;20.48;;
50906;SDS011;36882;27.680;85.304;2023-11-19T12:02:16;37.90;;;25.88;;
50906;SDS011;36882;27.680;85.304;2023-11-19T12:04:50;47.60;;;27.80;;
50906;SDS011;36882;27.680;85.304;2023-11-19T12:07:22;55.70;;;31.42;;
50906;SDS011;36882;27.680;85.304;2023-11-19T12:10:15;75.78;;;38.72;;
50906;SDS011;36882;27.680;85.304;2023-11-19T12:12:45;70.78;;;38.22;;
50906;SDS011;36882;27.680;85.304;2023-11-19T12:15:15;72.20;;;38.90;;
50906;SDS011;36882;27.680;85.304;2023-11-19T12:17:48;61.55;;;36.28;;
50906;SDS011;36882;27.680;85.304;2023-11-19T12:20:21;69.00;;;38.05;;
50906;SDS011;36882;27.680;85.304;2023-11-19T12:22:55;79.57;;;41.67;;
50906;SDS011;36882;27.680;85.304;2023-11-19T12:25:26;72.25;;;39.80;;
50906;SDS011;36882;27.680;85.304;2023-11-19T12:27:56;62.10;;;33.47;;
50906;SDS011;36882;27.680;85.304;2023-11-19T12:30:27;46.45;;;27.23;;
50906;SDS011;36882;27.680;85.304;2023-11-19T12:32:58;49.20;;;25.83;;
50906;SDS011;36882;27.680;85.304;2023-11-19T12:35:29;41.95;;;23.67;;
50906;SDS011;36882;27.680;85.304;2023-11-19T12:40:30;38.67;;;23.98;;
50906;SDS011;36882;27.680;85.304;2023-11-19T12:43:01;39.03;;;25.33;;
50906;SDS011;36882;27.680;85.304;2023-11-19T12:45:35;47.80;;;25.10;;
50906;SDS011;36882;27.680;85.304;2023-11-19T12:48:07;44.25;;;26.17;;
50906;SDS011;36882;27.680;85.304;2023-11-19T12:50:54;39.35;;;25.50;;
50906;SDS011;36882;27.680;85.304;2023-11-19T12:55:59;46.78;;;24.20;;
50906;SDS011;36882;27.680;85.304;2023-11-19T12:58:37;42.10;;;21.45;;
50906;SDS011;36882;27.680;85.304;2023-11-19T13:01:08;38.92;;;20.77;;
50906;SDS011;36882;27.680;85.304;2023-11-19T13:03:39;34.13;;;21.20;;
50906;SDS011;36882;27.680;85.304;2023-11-19T13:06:10;42.22;;;22.30;;
50906;SDS011;36882;27.680;85.304;2023-11-19T13:08:48;43.15;;;25.38;;
50906;SDS011;36882;27.680;85.304;2023-11-19T13:11:33;44.92;;;25.27;;
50906;SDS011;36882;27.680;85.304;2023-11-19T13:14:05;39.05;;;23.80;;
50906;SDS011;36882;27.680;85.304;2023-11-19T13:16:40;70.78;;;38.35;;
50906;SDS011;36882;27.680;85.304;2023-11-19T13:19:11;71.88;;;43.78;;
50906;SDS011;36882;27.680;85.304;2023-11-19T13:21:48;64.47;;;37.75;;
50906;SDS011;36882;27.680;85.304;2023-11-19T13:26:48;64.30;;;38.47;;
50906;SDS011;36882;27.680;85.304;2023-11-19T13:31:48;83.65;;;48.00;;
50906;SDS011;36882;27.680;85.304;2023-11-19T13:34:19;74.63;;;47.88;;
50906;SDS011;36882;27.680;85.304;2023-11-19T13:36:49;70.65;;;40.92;;
50906;SDS011;36882;27.680;85.304;2023-11-19T13:41:52;60.13;;;40.47;;
50906;SDS011;36882;27.680;85.304;2023-11-19T13:44:39;72.70;;;43.15;;
50906;SDS011;36882;27.680;85.304;2023-11-19T13:47:10;77.03;;;42.90;;
50906;SDS011;36882;27.680;85.304;2023-11-19T13:49:44;110.72;;;66.30;;
50906;SDS011;36882;27.680;85.304;2023-11-19T13:52:14;120.13;;;73.35;;
50906;SDS011;36882;27.680;85.304;2023-11-19T13:54:45;115.57;;;70.95;;
50906;SDS011;36882;27.680;85.304;2023-11-19T13:57:17;96.93;;;60.78;;
50906;SDS011;36882;27.680;85.304;2023-11-19T14:02:17;97.65;;;54.67;;
50906;SDS011;36882;27.680;85.304;2023-11-19T14:07:17;85.75;;;51.22;;
50906;SDS011;36882;27.680;85.304;2023-11-19T14:09:47;86.28;;;52.00;;
50906;SDS011;36882;27.680;85.304;2023-11-19T14:12:19;121.18;;;69.65;;
50906;SDS011;36882;27.680;85.304;2023-11-19T14:14:49;86.22;;;51.90;;
50906;SDS011;36882;27.680;85.304;2023-11-19T14:19:49;67.07;;;46.83;;
50906;SDS011;36882;27.680;85.304;2023-11-19T14:24:50;66.75;;;36.47;;
50906;SDS011;36882;27.680;85.304;2023-11-19T14:27:20;64.32;;;36.08;;
50906;SDS011;36882;27.680;85.304;2023-11-19T14:29:51;66.18;;;37.67;;
50906;SDS011;36882;27.680;85.304;2023-11-19T14:34:51;65.80;;;39.83;;
50906;SDS011;36882;27.680;85.304;2023-11-19T14:39:51;61.85;;;38.85;;
50906;SDS011;36882;27.680;85.304;2023-11-19T14:44:52;76.82;;;35.83;;
50906;SDS011;36882;27.680;85.304;2023-11-19T14:47:23;61.20;;;36.47;;
50906;SDS011;36882;27.680;85.304;2023-11-19T14:49:53;66.43;;;38.53;;
50906;SDS011;36882;27.680;85.304;2023-11-19T14:54:53;67.63;;;42.20;;
50906;SDS011;36882;27.680;85.304;2023-11-19T14:57:25;70.93;;;38.97;;
50906;SDS011;36882;27.680;85.304;2023-11-19T14:59:56;69.95;;;37.40;;
50906;SDS011;36882;27.680;85.304;2023-11-19T15:02:26;68.38;;;38.92;;
50906;SDS011;36882;27.680;85.304;2023-11-19T15:04:56;57.28;;;33.72;;
50906;SDS011;36882;27.680;85.304;2023-11-19T15:07:27;64.28;;;36.13;;
50906;SDS011;36882;27.680;85.304;2023-11-19T15:09:58;64.03;;;36.20;;
50906;SDS011;36882;27.680;85.304;2023-11-19T15:12:29;53.90;;;35.25;;
50906;SDS011;36882;27.680;85.304;2023-11-19T15:15:00;62.58;;;37.00;;
50906;SDS011;36882;27.680;85.304;2023-11-19T15:17:31;61.30;;;36.22;;
50906;SDS011;36882;27.680;85.304;2023-11-19T15:20:03;55.65;;;33.92;;
50906;SDS011;36882;27.680;85.304;2023-11-19T15:22:33;61.03;;;33.70;;
50906;SDS011;36882;27.680;85.304;2023-11-19T15:25:04;49.38;;;32.08;;
50906;SDS011;36882;27.680;85.304;2023-11-19T15:27:38;53.80;;;30.13;;
50906;SDS011;36882;27.680;85.304;2023-11-19T15:32:39;46.83;;;27.75;;
50906;SDS011;36882;27.680;85.304;2023-11-19T15:35:10;41.05;;;26.02;;
50906;SDS011;36882;27.680;85.304;2023-11-19T15:37:41;35.50;;;23.90;;
50906;SDS011;36882;27.680;85.304;2023-11-19T15:40:13;36.97;;;25.13;;
50906;SDS011;36882;27.680;85.304;2023-11-19T15:42:44;36.50;;;24.80;;
50906;SDS011;36882;27.680;85.304;2023-11-19T15:45:16;38.55;;;22.30;;
50906;SDS011;36882;27.680;85.304;2023-11-19T15:50:16;35.45;;;24.60;;
50906;SDS011;36882;27.680;85.304;2023-11-19T15:55:16;38.45;;;23.38;;
50906;SDS011;36882;27.680;85.304;2023-11-19T16:00:17;36.33;;;24.38;;
50906;SDS011;36882;27.680;85.304;2023-11-19T16:02:50;43.33;;;25.63;;
50906;SDS011;36882;27.680;85.304;2023-11-19T16:05:20;38.58;;;24.25;;
50906;SDS011;36882;27.680;85.304;2023-11-19T16:07:52;35.15;;;23.45;;
50906;SDS011;36882;27.680;85.304;2023-11-19T16:10:27;41.92;;;25.25;;
50906;SDS011;36882;27.680;85.304;2023-11-19T16:12:58;45.97;;;26.60;;
50906;SDS011;36882;27.680;85.304;2023-11-19T16:15:28;42.20;;;26.58;;
50906;SDS011;36882;27.680;85.304;2023-11-19T16:18:01;50.45;;;29.15;;
50906;SDS011;36882;27.680;85.304;2023-11-19T16:20:32;44.60;;;27.20;;